sensor_id;sensor_type;location;lat;lon;timestamp;temperature;humidity
40323;DHT22;26030;51.164;17.100;2023-03-01T00:02:42;22.50;52.90
40323;DHT22;26030;51.164;17.100;2023-03-01T00:07:46;22.40;52.60
40323;DHT22;26030;51.164;17.100;2023-03-01T00:12:51;22.30;52.40
40323;DHT22;26030;51.164;17.100;2023-03-01T00:17:55;22.20;52.40
40323;DHT22;26030;51.164;17.100;2023-03-01T00:22:59;22.10;52.10
40323;DHT22;26030;51.164;17.100;2023-03-01T00:28:04;22.00;52.40
40323;DHT22;26030;51.164;17.100;2023-03-01T00:33:08;22.00;52.10
40323;DHT22;26030;51.164;17.100;2023-03-01T00:38:12;21.90;51.50
40323;DHT22;26030;51.164;17.100;2023-03-01T00:43:17;21.80;52.20
40323;DHT22;26030;51.164;17.100;2023-03-01T00:48:21;21.70;52.20
40323;DHT22;26030;51.164;17.100;2023-03-01T00:53:25;21.70;52.10
40323;DHT22;26030;51.164;17.100;2023-03-01T00:58:30;21.70;52.00
40323;DHT22;26030;51.164;17.100;2023-03-01T01:03:34;21.60;52.00
40323;DHT22;26030;51.164;17.100;2023-03-01T01:08:38;21.50;52.20
40323;DHT22;26030;51.164;17.100;2023-03-01T01:13:44;21.50;52.00
40323;DHT22;26030;51.164;17.100;2023-03-01T01:18:50;21.50;52.30
40323;DHT22;26030;51.164;17.100;2023-03-01T01:23:54;21.40;52.10
40323;DHT22;26030;51.164;17.100;2023-03-01T01:28:59;21.60;52.70
40323;DHT22;26030;51.164;17.100;2023-03-01T01:34:05;21.80;51.60
40323;DHT22;26030;51.164;17.100;2023-03-01T01:39:11;22.00;51.10
40323;DHT22;26030;51.164;17.100;2023-03-01T01:44:20;22.10;51.20
40323;DHT22;26030;51.164;17.100;2023-03-01T01:49:28;22.10;50.70
40323;DHT22;26030;51.164;17.100;2023-03-01T01:59:58;22.30;50.00
40323;DHT22;26030;51.164;17.100;2023-03-01T02:10:44;22.30;49.70
40323;DHT22;26030;51.164;17.100;2023-03-01T02:15:50;22.30;49.60
40323;DHT22;26030;51.164;17.100;2023-03-01T02:31:28;22.30;49.40
40323;DHT22;26030;51.164;17.100;2023-03-01T02:36:49;22.30;49.40
40323;DHT22;26030;51.164;17.100;2023-03-01T02:42:12;22.30;49.40
40323;DHT22;26030;51.164;17.100;2023-03-01T02:47:19;22.30;49.40
40323;DHT22;26030;51.164;17.100;2023-03-01T02:53:07;22.20;49.30
40323;DHT22;26030;51.164;17.100;2023-03-01T02:57:56;22.30;49.30
40323;DHT22;26030;51.164;17.100;2023-03-01T03:03:01;22.30;49.30
40323;DHT22;26030;51.164;17.100;2023-03-01T03:08:05;22.30;49.60
40323;DHT22;26030;51.164;17.100;2023-03-01T03:13:12;22.30;49.40
40323;DHT22;26030;51.164;17.100;2023-03-01T03:18:18;22.30;49.80
40323;DHT22;26030;51.164;17.100;2023-03-01T03:23:22;22.30;49.20
40323;DHT22;26030;51.164;17.100;2023-03-01T03:28:26;22.50;48.70
40323;DHT22;26030;51.164;17.100;2023-03-01T03:33:30;22.60;48.40
40323;DHT22;26030;51.164;17.100;2023-03-01T03:38:34;22.60;48.40
40323;DHT22;26030;51.164;17.100;2023-03-01T03:43:39;22.50;48.30
40323;DHT22;26030;51.164;17.100;2023-03-01T03:48:46;22.50;48.40
40323;DHT22;26030;51.164;17.100;2023-03-01T03:53:50;22.50;48.30
40323;DHT22;26030;51.164;17.100;2023-03-01T03:58:54;22.40;48.30
40323;DHT22;26030;51.164;17.100;2023-03-01T04:03:58;22.40;48.20
40323;DHT22;26030;51.164;17.100;2023-03-01T04:09:07;22.40;48.20
40323;DHT22;26030;51.164;17.100;2023-03-01T04:14:11;22.40;48.30
40323;DHT22;26030;51.164;17.100;2023-03-01T04:19:15;22.40;49.10
40323;DHT22;26030;51.164;17.100;2023-03-01T04:24:20;22.40;48.60
40323;DHT22;26030;51.164;17.100;2023-03-01T04:29:25;22.40;48.60
40323;DHT22;26030;51.164;17.100;2023-03-01T04:34:30;22.40;48.50
40323;DHT22;26030;51.164;17.100;2023-03-01T04:39:34;22.40;48.60
40323;DHT22;26030;51.164;17.100;2023-03-01T04:44:49;22.40;48.80
40323;DHT22;26030;51.164;17.100;2023-03-01T04:49:54;22.40;48.70
40323;DHT22;26030;51.164;17.100;2023-03-01T04:54:58;22.50;49.30
40323;DHT22;26030;51.164;17.100;2023-03-01T05:00:03;22.50;48.60
40323;DHT22;26030;51.164;17.100;2023-03-01T05:05:25;22.40;47.30
40323;DHT22;26030;51.164;17.100;2023-03-01T05:10:32;22.40;47.80
40323;DHT22;26030;51.164;17.100;2023-03-01T05:15:38;22.40;47.90
40323;DHT22;26030;51.164;17.100;2023-03-01T05:20:43;22.50;47.70
40323;DHT22;26030;51.164;17.100;2023-03-01T05:25:48;22.60;47.60
40323;DHT22;26030;51.164;17.100;2023-03-01T05:30:52;22.50;47.90
40323;DHT22;26030;51.164;17.100;2023-03-01T05:36:00;22.40;48.00
40323;DHT22;26030;51.164;17.100;2023-03-01T05:41:04;22.40;48.00
40323;DHT22;26030;51.164;17.100;2023-03-01T05:46:08;22.40;48.10
40323;DHT22;26030;51.164;17.100;2023-03-01T05:51:15;22.30;48.20
40323;DHT22;26030;51.164;17.100;2023-03-01T05:56:21;22.30;48.10
40323;DHT22;26030;51.164;17.100;2023-03-01T06:01:26;22.30;48.10
40323;DHT22;26030;51.164;17.100;2023-03-01T06:06:33;22.30;48.10
40323;DHT22;26030;51.164;17.100;2023-03-01T06:11:40;22.40;48.10
40323;DHT22;26030;51.164;17.100;2023-03-01T06:16:44;22.40;47.90
40323;DHT22;26030;51.164;17.100;2023-03-01T06:21:50;22.50;47.60
40323;DHT22;26030;51.164;17.100;2023-03-01T06:26:54;22.50;47.60
40323;DHT22;26030;51.164;17.100;2023-03-01T06:31:59;22.60;47.60
40323;DHT22;26030;51.164;17.100;2023-03-01T06:37:03;22.60;47.60
40323;DHT22;26030;51.164;17.100;2023-03-01T06:42:08;22.50;47.60
40323;DHT22;26030;51.164;17.100;2023-03-01T06:47:16;22.50;47.60
40323;DHT22;26030;51.164;17.100;2023-03-01T06:52:20;22.50;47.70
40323;DHT22;26030;51.164;17.100;2023-03-01T06:57:24;22.50;47.50
40323;DHT22;26030;51.164;17.100;2023-03-01T07:02:28;22.60;47.70
40323;DHT22;26030;51.164;17.100;2023-03-01T07:07:32;22.60;48.00
40323;DHT22;26030;51.164;17.100;2023-03-01T07:12:36;22.50;48.20
40323;DHT22;26030;51.164;17.100;2023-03-01T07:17:40;22.60;48.70
40323;DHT22;26030;51.164;17.100;2023-03-01T07:22:44;22.60;48.90
40323;DHT22;26030;51.164;17.100;2023-03-01T07:27:51;22.50;49.20
40323;DHT22;26030;51.164;17.100;2023-03-01T07:32:56;22.60;49.20
40323;DHT22;26030;51.164;17.100;2023-03-01T07:38:01;22.70;49.70
40323;DHT22;26030;51.164;17.100;2023-03-01T07:43:05;22.60;49.40
40323;DHT22;26030;51.164;17.100;2023-03-01T07:48:09;22.70;49.70
40323;DHT22;26030;51.164;17.100;2023-03-01T07:53:13;22.80;49.40
40323;DHT22;26030;51.164;17.100;2023-03-01T07:58:18;22.80;49.40
40323;DHT22;26030;51.164;17.100;2023-03-01T08:03:22;22.80;49.10
40323;DHT22;26030;51.164;17.100;2023-03-01T08:08:27;22.90;49.10
40323;DHT22;26030;51.164;17.100;2023-03-01T08:13:31;22.90;49.20
40323;DHT22;26030;51.164;17.100;2023-03-01T08:18:37;22.90;49.50
40323;DHT22;26030;51.164;17.100;2023-03-01T08:23:42;22.80;49.10
40323;DHT22;26030;51.164;17.100;2023-03-01T08:28:47;22.80;48.80
40323;DHT22;26030;51.164;17.100;2023-03-01T08:33:55;22.80;48.80
40323;DHT22;26030;51.164;17.100;2023-03-01T08:39:00;22.70;48.80
40323;DHT22;26030;51.164;17.100;2023-03-01T08:44:05;22.70;48.80
40323;DHT22;26030;51.164;17.100;2023-03-01T08:49:14;22.70;49.20
40323;DHT22;26030;51.164;17.100;2023-03-01T08:54:20;22.70;49.10
40323;DHT22;26030;51.164;17.100;2023-03-01T08:59:25;22.60;48.70
40323;DHT22;26030;51.164;17.100;2023-03-01T09:04:30;22.60;48.60
40323;DHT22;26030;51.164;17.100;2023-03-01T09:09:35;22.60;48.60
40323;DHT22;26030;51.164;17.100;2023-03-01T09:14:40;22.60;48.70
40323;DHT22;26030;51.164;17.100;2023-03-01T09:19:44;22.60;48.60
40323;DHT22;26030;51.164;17.100;2023-03-01T09:24:48;22.60;48.80
40323;DHT22;26030;51.164;17.100;2023-03-01T09:29:53;22.50;48.70
40323;DHT22;26030;51.164;17.100;2023-03-01T09:34:59;22.50;48.80
40323;DHT22;26030;51.164;17.100;2023-03-01T09:40:14;22.50;48.80
40323;DHT22;26030;51.164;17.100;2023-03-01T09:45:25;22.50;49.10
40323;DHT22;26030;51.164;17.100;2023-03-01T09:50:35;22.50;49.00
40323;DHT22;26030;51.164;17.100;2023-03-01T10:00:54;22.50;49.60
40323;DHT22;26030;51.164;17.100;2023-03-01T10:06:19;22.50;49.30
40323;DHT22;26030;51.164;17.100;2023-03-01T10:11:40;22.50;49.40
40323;DHT22;26030;51.164;17.100;2023-03-01T10:16:53;22.50;49.10
40323;DHT22;26030;51.164;17.100;2023-03-01T10:22:15;22.60;49.10
40323;DHT22;26030;51.164;17.100;2023-03-01T10:28:14;22.60;49.30
40323;DHT22;26030;51.164;17.100;2023-03-01T10:32:58;22.70;48.80
40323;DHT22;26030;51.164;17.100;2023-03-01T10:38:09;22.80;49.20
40323;DHT22;26030;51.164;17.100;2023-03-01T10:43:15;22.90;48.60
40323;DHT22;26030;51.164;17.100;2023-03-01T10:48:21;22.90;48.30
40323;DHT22;26030;51.164;17.100;2023-03-01T10:53:34;22.90;48.50
40323;DHT22;26030;51.164;17.100;2023-03-01T11:09:17;23.00;48.30
40323;DHT22;26030;51.164;17.100;2023-03-01T11:14:24;23.10;48.00
40323;DHT22;26030;51.164;17.100;2023-03-01T11:19:31;23.10;48.00
40323;DHT22;26030;51.164;17.100;2023-03-01T11:24:38;23.20;47.80
40323;DHT22;26030;51.164;17.100;2023-03-01T11:29:52;23.20;47.80
40323;DHT22;26030;51.164;17.100;2023-03-01T11:45:43;23.30;47.60
40323;DHT22;26030;51.164;17.100;2023-03-01T11:51:02;23.40;47.60
40323;DHT22;26030;51.164;17.100;2023-03-01T11:56:35;23.30;47.50
40323;DHT22;26030;51.164;17.100;2023-03-01T12:07:12;23.40;47.50
40323;DHT22;26030;51.164;17.100;2023-03-01T12:12:42;23.40;47.40
40323;DHT22;26030;51.164;17.100;2023-03-01T12:28:35;23.40;47.30
40323;DHT22;26030;51.164;17.100;2023-03-01T12:34:13;23.40;47.20
40323;DHT22;26030;51.164;17.100;2023-03-01T12:39:34;23.50;47.60
40323;DHT22;26030;51.164;17.100;2023-03-01T12:50:37;23.40;47.60
40323;DHT22;26030;51.164;17.100;2023-03-01T12:55:42;23.50;47.10
40323;DHT22;26030;51.164;17.100;2023-03-01T13:06:25;23.40;47.20
40323;DHT22;26030;51.164;17.100;2023-03-01T13:11:49;23.30;47.20
40323;DHT22;26030;51.164;17.100;2023-03-01T13:16:53;23.20;46.30
40323;DHT22;26030;51.164;17.100;2023-03-01T13:21:59;23.30;46.50
40323;DHT22;26030;51.164;17.100;2023-03-01T13:32:53;23.20;46.80
40323;DHT22;26030;51.164;17.100;2023-03-01T13:37:49;23.10;46.90
40323;DHT22;26030;51.164;17.100;2023-03-01T13:42:53;23.00;47.20
40323;DHT22;26030;51.164;17.100;2023-03-01T13:48:17;23.00;47.60
40323;DHT22;26030;51.164;17.100;2023-03-01T13:53:35;23.00;47.30
40323;DHT22;26030;51.164;17.100;2023-03-01T13:59:05;23.00;47.40
40323;DHT22;26030;51.164;17.100;2023-03-01T14:09:29;23.10;47.20
40323;DHT22;26030;51.164;17.100;2023-03-01T14:14:40;23.00;46.90
40323;DHT22;26030;51.164;17.100;2023-03-01T14:19:54;23.00;47.20
40323;DHT22;26030;51.164;17.100;2023-03-01T14:25:02;23.00;47.20
40323;DHT22;26030;51.164;17.100;2023-03-01T14:30:11;23.00;47.30
40323;DHT22;26030;51.164;17.100;2023-03-01T14:35:22;23.00;47.80
40323;DHT22;26030;51.164;17.100;2023-03-01T14:40:32;22.90;47.40
40323;DHT22;26030;51.164;17.100;2023-03-01T14:45:38;22.90;48.10
40323;DHT22;26030;51.164;17.100;2023-03-01T14:50:43;22.80;47.70
40323;DHT22;26030;51.164;17.100;2023-03-01T14:55:50;22.70;47.40
40323;DHT22;26030;51.164;17.100;2023-03-01T15:01:00;22.70;47.40
40323;DHT22;26030;51.164;17.100;2023-03-01T15:06:07;22.70;47.30
40323;DHT22;26030;51.164;17.100;2023-03-01T15:16:30;22.50;47.60
40323;DHT22;26030;51.164;17.100;2023-03-01T15:21:37;22.50;47.50
40323;DHT22;26030;51.164;17.100;2023-03-01T15:26:43;22.40;47.60
40323;DHT22;26030;51.164;17.100;2023-03-01T15:31:54;22.30;47.90
40323;DHT22;26030;51.164;17.100;2023-03-01T15:37:00;22.20;47.90
40323;DHT22;26030;51.164;17.100;2023-03-01T15:42:06;22.20;48.40
40323;DHT22;26030;51.164;17.100;2023-03-01T15:47:24;22.10;48.00
40323;DHT22;26030;51.164;17.100;2023-03-01T15:52:39;22.00;48.10
40323;DHT22;26030;51.164;17.100;2023-03-01T15:57:45;22.00;48.10
40323;DHT22;26030;51.164;17.100;2023-03-01T16:02:49;22.00;48.10
40323;DHT22;26030;51.164;17.100;2023-03-01T16:07:53;21.90;48.20
40323;DHT22;26030;51.164;17.100;2023-03-01T16:12:58;21.90;48.20
40323;DHT22;26030;51.164;17.100;2023-03-01T16:18:03;21.90;48.20
40323;DHT22;26030;51.164;17.100;2023-03-01T16:23:14;21.80;48.20
40323;DHT22;26030;51.164;17.100;2023-03-01T16:28:22;21.80;47.90
40323;DHT22;26030;51.164;17.100;2023-03-01T16:33:28;21.90;47.80
40323;DHT22;26030;51.164;17.100;2023-03-01T16:38:39;22.20;47.80
40323;DHT22;26030;51.164;17.100;2023-03-01T16:43:46;22.30;48.10
40323;DHT22;26030;51.164;17.100;2023-03-01T16:48:52;22.40;48.80
40323;DHT22;26030;51.164;17.100;2023-03-01T16:53:58;22.50;48.60
40323;DHT22;26030;51.164;17.100;2023-03-01T16:59:02;22.60;48.50
40323;DHT22;26030;51.164;17.100;2023-03-01T17:04:12;22.60;48.10
40323;DHT22;26030;51.164;17.100;2023-03-01T17:09:17;22.60;47.80
40323;DHT22;26030;51.164;17.100;2023-03-01T17:14:25;22.70;47.60
40323;DHT22;26030;51.164;17.100;2023-03-01T17:19:31;22.70;47.50
40323;DHT22;26030;51.164;17.100;2023-03-01T17:24:38;22.70;47.40
40323;DHT22;26030;51.164;17.100;2023-03-01T17:29:46;22.70;47.30
40323;DHT22;26030;51.164;17.100;2023-03-01T17:34:51;22.70;47.30
40323;DHT22;26030;51.164;17.100;2023-03-01T17:39:56;22.70;47.40
40323;DHT22;26030;51.164;17.100;2023-03-01T17:45:03;22.60;47.30
40323;DHT22;26030;51.164;17.100;2023-03-01T17:50:09;22.70;47.30
40323;DHT22;26030;51.164;17.100;2023-03-01T17:55:15;22.60;46.40
40323;DHT22;26030;51.164;17.100;2023-03-01T18:00:22;22.50;46.90
40323;DHT22;26030;51.164;17.100;2023-03-01T18:05:30;22.60;46.80
40323;DHT22;26030;51.164;17.100;2023-03-01T18:10:36;22.60;47.00
40323;DHT22;26030;51.164;17.100;2023-03-01T18:15:44;22.70;46.30
40323;DHT22;26030;51.164;17.100;2023-03-01T18:20:54;22.70;46.50
40323;DHT22;26030;51.164;17.100;2023-03-01T18:26:05;22.80;46.10
40323;DHT22;26030;51.164;17.100;2023-03-01T18:31:12;22.80;45.60
40323;DHT22;26030;51.164;17.100;2023-03-01T18:36:25;22.90;45.40
40323;DHT22;26030;51.164;17.100;2023-03-01T18:41:34;22.90;45.40
40323;DHT22;26030;51.164;17.100;2023-03-01T18:46:43;22.90;45.30
40323;DHT22;26030;51.164;17.100;2023-03-01T18:51:52;22.90;45.20
40323;DHT22;26030;51.164;17.100;2023-03-01T18:56:59;22.80;45.20
40323;DHT22;26030;51.164;17.100;2023-03-01T19:02:06;22.80;44.90
40323;DHT22;26030;51.164;17.100;2023-03-01T19:07:12;22.70;45.20
40323;DHT22;26030;51.164;17.100;2023-03-01T19:12:18;22.70;45.20
40323;DHT22;26030;51.164;17.100;2023-03-01T19:17:24;22.70;44.40
40323;DHT22;26030;51.164;17.100;2023-03-01T19:22:39;22.80;44.50
40323;DHT22;26030;51.164;17.100;2023-03-01T19:27:45;22.70;44.70
40323;DHT22;26030;51.164;17.100;2023-03-01T19:32:52;22.70;45.00
40323;DHT22;26030;51.164;17.100;2023-03-01T19:37:58;22.80;44.90
40323;DHT22;26030;51.164;17.100;2023-03-01T19:43:04;22.80;45.40
40323;DHT22;26030;51.164;17.100;2023-03-01T19:48:10;22.80;46.00
40323;DHT22;26030;51.164;17.100;2023-03-01T19:53:18;22.90;47.10
40323;DHT22;26030;51.164;17.100;2023-03-01T19:58:26;22.70;48.30
40323;DHT22;26030;51.164;17.100;2023-03-01T20:03:33;22.70;48.40
40323;DHT22;26030;51.164;17.100;2023-03-01T20:08:42;22.60;48.00
40323;DHT22;26030;51.164;17.100;2023-03-01T20:13:48;22.60;48.60
40323;DHT22;26030;51.164;17.100;2023-03-01T20:18:55;22.50;48.20
40323;DHT22;26030;51.164;17.100;2023-03-01T20:24:03;22.40;48.00
40323;DHT22;26030;51.164;17.100;2023-03-01T20:29:14;22.40;47.40
40323;DHT22;26030;51.164;17.100;2023-03-01T20:34:22;22.30;47.60
40323;DHT22;26030;51.164;17.100;2023-03-01T20:39:29;22.30;46.90
40323;DHT22;26030;51.164;17.100;2023-03-01T20:44:35;22.20;46.80
40323;DHT22;26030;51.164;17.100;2023-03-01T20:49:49;22.20;47.40
40323;DHT22;26030;51.164;17.100;2023-03-01T20:54:56;22.30;46.60
40323;DHT22;26030;51.164;17.100;2023-03-01T21:00:03;22.10;47.10
40323;DHT22;26030;51.164;17.100;2023-03-01T21:05:11;22.10;47.90
40323;DHT22;26030;51.164;17.100;2023-03-01T21:10:16;22.10;47.20
40323;DHT22;26030;51.164;17.100;2023-03-01T21:15:23;22.00;47.60
40323;DHT22;26030;51.164;17.100;2023-03-01T21:20:32;21.90;47.70
40323;DHT22;26030;51.164;17.100;2023-03-01T21:25:36;21.90;47.70
40323;DHT22;26030;51.164;17.100;2023-03-01T21:30:43;21.90;49.80
40323;DHT22;26030;51.164;17.100;2023-03-01T21:35:47;21.80;51.00
40323;DHT22;26030;51.164;17.100;2023-03-01T21:40:52;21.80;52.00
40323;DHT22;26030;51.164;17.100;2023-03-01T21:45:59;21.60;51.60
40323;DHT22;26030;51.164;17.100;2023-03-01T21:51:05;21.60;51.20
40323;DHT22;26030;51.164;17.100;2023-03-01T21:56:10;21.50;50.90
40323;DHT22;26030;51.164;17.100;2023-03-01T22:01:25;21.60;50.70
40323;DHT22;26030;51.164;17.100;2023-03-01T22:06:31;22.00;55.20
40323;DHT22;26030;51.164;17.100;2023-03-01T22:11:38;22.20;53.80
40323;DHT22;26030;51.164;17.100;2023-03-01T22:16:45;22.40;53.70
40323;DHT22;26030;51.164;17.100;2023-03-01T22:21:51;22.50;53.80
40323;DHT22;26030;51.164;17.100;2023-03-01T22:26:56;22.50;53.10
40323;DHT22;26030;51.164;17.100;2023-03-01T22:32:00;22.60;53.00
40323;DHT22;26030;51.164;17.100;2023-03-01T22:37:05;22.60;53.00
40323;DHT22;26030;51.164;17.100;2023-03-01T22:42:09;22.60;52.80
40323;DHT22;26030;51.164;17.100;2023-03-01T22:47:13;22.60;53.00
40323;DHT22;26030;51.164;17.100;2023-03-01T22:52:18;22.60;52.90
40323;DHT22;26030;51.164;17.100;2023-03-01T22:57:22;22.60;52.50
40323;DHT22;26030;51.164;17.100;2023-03-01T23:02:26;22.60;52.00
40323;DHT22;26030;51.164;17.100;2023-03-01T23:07:31;22.60;52.20
40323;DHT22;26030;51.164;17.100;2023-03-01T23:12:35;22.60;52.10
40323;DHT22;26030;51.164;17.100;2023-03-01T23:17:39;22.60;52.00
40323;DHT22;26030;51.164;17.100;2023-03-01T23:22:43;22.60;52.10
40323;DHT22;26030;51.164;17.100;2023-03-01T23:27:47;22.50;52.10
40323;DHT22;26030;51.164;17.100;2023-03-01T23:32:51;22.60;52.00
40323;DHT22;26030;51.164;17.100;2023-03-01T23:37:55;22.60;51.60
40323;DHT22;26030;51.164;17.100;2023-03-01T23:43:00;22.60;51.50
40323;DHT22;26030;51.164;17.100;2023-03-01T23:48:04;22.70;51.00
40323;DHT22;26030;51.164;17.100;2023-03-01T23:53:09;22.60;51.60
40323;DHT22;26030;51.164;17.100;2023-03-01T23:58:17;22.60;51.20
